Time;durP1;ratioP1;P1;durP2;ratioP2;P2;SDS_P1;SDS_P2;PMS_P1;PMS_P2;Temp;Humidity;BMP_temperature;BMP_pressure;BME280_temperature;BME280_humidity;BME280_pressure;Samples;Min_cycle;Max_cycle;Signal;HPM_P1;HPM_P2
2024/01/30 00:01:56;;;;;;;30.45;19.67;;;;;;;;;;4942520;28;20520;-72
2024/01/30 00:04:22;;;;;;;26.65;18.25;;;;;;;;;;4944960;28;20503;-72
2024/01/30 00:06:48;;;;;;;24.20;17.77;;;;;;;;;;4933720;29;20039;-72
2024/01/30 00:09:15;;;;;;;26.38;17.77;;;;;;;;;;4935944;28;20031;-72
2024/01/30 00:11:41;;;;;;;33.10;19.08;;;;;;;;;;4931120;29;20135;-72
2024/01/30 00:14:07;;;;;;;26.95;18.30;;;;;;;;;;4944255;28;20043;-76
2024/01/30 00:16:33;;;;;;;23.27;17.15;;;;;;;;;;4944587;28;20035;-72
2024/01/30 00:18:59;;;;;;;23.60;17.58;;;;;;;;;;4945267;28;20481;-72
2024/01/30 00:21:25;;;;;;;28.65;17.30;;;;;;;;;;4946787;28;20086;-72
2024/01/30 00:23:51;;;;;;;23.65;16.58;;;;;;;;;;4943993;28;20118;-72
2024/01/30 00:26:17;;;;;;;28.10;18.70;;;;;;;;;;4948841;28;20024;-72
2024/01/30 00:28:44;;;;;;;25.85;17.27;;;;;;;;;;4943770;28;20028;-72
2024/01/30 00:31:13;;;;;;;26.55;19.00;;;;;;;;;;4942295;29;20038;-72
2024/01/30 00:33:39;;;;;;;25.02;17.77;;;;;;;;;;4946561;29;20446;-72
2024/01/30 00:36:06;;;;;;;29.20;17.83;;;;;;;;;;4941422;28;20055;-71
2024/01/30 00:38:32;;;;;;;24.30;17.58;;;;;;;;;;4945687;28;20031;-72
2024/01/30 00:40:58;;;;;;;26.40;18.70;;;;;;;;;;4939479;28;20481;-72
2024/01/30 00:43:25;;;;;;;35.40;18.75;;;;;;;;;;4944368;28;20496;-72
2024/01/30 00:45:54;;;;;;;24.27;18.23;;;;;;;;;;4926768;29;20119;-74
2024/01/30 00:48:20;;;;;;;22.25;16.52;;;;;;;;;;4945896;28;20035;-72
2024/01/30 00:50:46;;;;;;;23.92;16.60;;;;;;;;;;4931638;29;20048;-74
2024/01/30 00:53:13;;;;;;;26.50;16.80;;;;;;;;;;4931260;29;20067;-73
2024/01/30 00:55:39;;;;;;;32.13;19.60;;;;;;;;;;4921429;29;20035;-73
2024/01/30 00:58:05;;;;;;;30.02;18.73;;;;;;;;;;4937500;28;20016;-72
2024/01/30 01:00:31;;;;;;;27.27;18.00;;;;;;;;;;4936472;29;20031;-72
2024/01/30 01:02:58;;;;;;;26.23;20.23;;;;;;;;;;4948515;29;20034;-72
2024/01/30 01:05:24;;;;;;;27.98;18.15;;;;;;;;;;4937881;28;20104;-72
2024/01/30 01:07:50;;;;;;;30.67;19.38;;;;;;;;;;4946831;29;20058;-73
2024/01/30 01:10:17;;;;;;;26.83;19.23;;;;;;;;;;4942763;28;20043;-75
2024/01/30 01:12:43;;;;;;;26.38;19.42;;;;;;;;;;4948785;29;20031;-73
2024/01/30 01:15:09;;;;;;;28.60;18.02;;;;;;;;;;4942821;29;20035;-73
2024/01/30 01:17:36;;;;;;;22.90;17.35;;;;;;;;;;4945377;28;20061;-73
2024/01/30 01:20:03;;;;;;;29.13;17.55;;;;;;;;;;4946896;28;20042;-73
2024/01/30 01:22:29;;;;;;;24.23;17.38;;;;;;;;;;4945424;28;20027;-73
2024/01/30 01:24:55;;;;;;;28.48;18.27;;;;;;;;;;4941590;29;20032;-73
2024/01/30 01:27:21;;;;;;;27.63;18.50;;;;;;;;;;4946943;28;20461;-73
2024/01/30 01:29:47;;;;;;;25.17;18.02;;;;;;;;;;4944075;28;20517;-73
2024/01/30 01:32:13;;;;;;;26.35;18.65;;;;;;;;;;4939301;28;20035;-73
2024/01/30 01:34:39;;;;;;;27.73;18.30;;;;;;;;;;4944797;29;20031;-72
2024/01/30 01:37:05;;;;;;;24.58;18.65;;;;;;;;;;4943798;28;20038;-73
2024/01/30 01:39:31;;;;;;;25.73;17.73;;;;;;;;;;4951801;28;20054;-73
2024/01/30 01:41:57;;;;;;;27.20;18.58;;;;;;;;;;4946455;28;20468;-73
2024/01/30 01:44:23;;;;;;;29.25;16.58;;;;;;;;;;4938899;29;20027;-73
2024/01/30 01:46:49;;;;;;;23.80;17.40;;;;;;;;;;4941183;28;20043;-73
2024/01/30 01:49:16;;;;;;;26.38;18.38;;;;;;;;;;4942734;29;20039;-73
2024/01/30 01:51:44;;;;;;;24.73;17.10;;;;;;;;;;4939322;28;20392;-72
2024/01/30 01:54:11;;;;;;;28.40;17.95;;;;;;;;;;4939290;28;20028;-73
2024/01/30 01:56:38;;;;;;;27.60;17.58;;;;;;;;;;4934648;29;20449;-73
2024/01/30 01:59:08;;;;;;;26.80;18.38;;;;;;;;;;4945099;29;20043;-73
2024/01/30 02:01:34;;;;;;;29.38;17.88;;;;;;;;;;4947832;29;20035;-73
2024/01/30 02:04:00;;;;;;;30.58;17.23;;;;;;;;;;4942559;29;20031;-75
2024/01/30 02:06:27;;;;;;;26.52;19.35;;;;;;;;;;4935846;29;20098;-73
2024/01/30 02:08:53;;;;;;;24.40;17.27;;;;;;;;;;4933710;29;20036;-75
2024/01/30 02:11:20;;;;;;;26.95;18.52;;;;;;;;;;4941639;29;20055;-72
2024/01/30 02:13:46;;;;;;;24.48;18.08;;;;;;;;;;4932237;29;20527;-73
2024/01/30 02:16:12;;;;;;;33.13;18.83;;;;;;;;;;4942067;28;20031;-73
2024/01/30 02:18:43;;;;;;;28.25;17.52;;;;;;;;;;4945330;29;20032;-73
2024/01/30 02:21:09;;;;;;;30.38;17.45;;;;;;;;;;4945858;29;20023;-73
2024/01/30 02:23:35;;;;;;;25.60;19.23;;;;;;;;;;4933713;29;20039;-73
2024/01/30 02:26:01;;;;;;;29.00;18.45;;;;;;;;;;4950694;28;20034;-74
2024/01/30 02:28:27;;;;;;;31.48;19.15;;;;;;;;;;4940039;29;20046;-73
2024/01/30 02:30:53;;;;;;;24.23;16.92;;;;;;;;;;4946683;29;20039;-73
2024/01/30 02:33:21;;;;;;;22.83;17.77;;;;;;;;;;4947777;29;20032;-73
2024/01/30 02:35:47;;;;;;;25.50;16.90;;;;;;;;;;4931575;29;20067;-73
2024/01/30 02:38:14;;;;;;;23.23;17.20;;;;;;;;;;4942765;29;20050;-73
2024/01/30 02:40:40;;;;;;;25.65;18.67;;;;;;;;;;4943520;29;20043;-74
2024/01/30 02:43:06;;;;;;;24.75;17.45;;;;;;;;;;4941339;29;20501;-73
2024/01/30 02:45:32;;;;;;;23.05;16.95;;;;;;;;;;4948116;29;20485;-76
2024/01/30 02:47:58;;;;;;;25.85;17.45;;;;;;;;;;4939803;28;20363;-76
2024/01/30 02:50:24;;;;;;;26.35;17.52;;;;;;;;;;4948928;29;20043;-74
2024/01/30 02:52:50;;;;;;;25.67;17.23;;;;;;;;;;4940235;29;20061;-75
2024/01/30 02:55:19;;;;;;;24.23;17.33;;;;;;;;;;4921223;29;20035;-75
2024/01/30 02:57:45;;;;;;;26.30;18.02;;;;;;;;;;4938268;29;20123;-75
2024/01/30 03:00:11;;;;;;;54.08;35.50;;;;;;;;;;4947559;29;20042;-75
2024/01/30 03:02:37;;;;;;;54.60;31.65;;;;;;;;;;4943724;29;20524;-76
2024/01/30 03:05:04;;;;;;;25.38;18.23;;;;;;;;;;4935081;29;20033;-75
2024/01/30 03:07:30;;;;;;;26.08;17.05;;;;;;;;;;4938832;29;20342;-74
2024/01/30 03:09:56;;;;;;;23.90;17.55;;;;;;;;;;4936380;28;20043;-75
2024/01/30 03:12:22;;;;;;;22.30;17.17;;;;;;;;;;4939935;29;20062;-75
2024/01/30 03:14:49;;;;;;;24.08;16.58;;;;;;;;;;4943105;29;20031;-75
2024/01/30 03:17:15;;;;;;;23.15;17.38;;;;;;;;;;4933421;29;20127;-75
2024/01/30 03:19:41;;;;;;;21.30;15.57;;;;;;;;;;4933786;29;20040;-75
2024/01/30 03:22:07;;;;;;;24.90;16.90;;;;;;;;;;4944234;29;20127;-76
2024/01/30 03:24:33;;;;;;;30.35;18.05;;;;;;;;;;4940169;29;20043;-75
2024/01/30 03:26:59;;;;;;;26.27;17.35;;;;;;;;;;4938216;29;20039;-74
2024/01/30 03:29:25;;;;;;;24.17;16.30;;;;;;;;;;4939792;29;20043;-75
2024/01/30 03:31:51;;;;;;;24.50;16.17;;;;;;;;;;4946292;29;20019;-74
2024/01/30 03:34:17;;;;;;;27.08;17.27;;;;;;;;;;4928107;29;20019;-74
2024/01/30 03:36:43;;;;;;;25.15;17.08;;;;;;;;;;4946288;29;20038;-75
2024/01/30 03:39:09;;;;;;;24.48;17.70;;;;;;;;;;4950129;29;20027;-75
2024/01/30 03:41:36;;;;;;;25.38;17.02;;;;;;;;;;4935782;29;20046;-75
2024/01/30 03:44:02;;;;;;;23.85;16.75;;;;;;;;;;4936407;29;20512;-77
2024/01/30 03:46:28;;;;;;;27.50;17.00;;;;;;;;;;4941565;29;20389;-75
2024/01/30 03:48:54;;;;;;;24.42;15.88;;;;;;;;;;4939821;29;20370;-74
2024/01/30 03:51:20;;;;;;;21.83;15.40;;;;;;;;;;4937367;29;20047;-75
2024/01/30 03:53:46;;;;;;;23.88;15.48;;;;;;;;;;4938692;28;20046;-72
2024/01/30 03:56:15;;;;;;;45.60;24.13;;;;;;;;;;4942361;28;20119;-74
2024/01/30 03:58:41;;;;;;;27.20;18.67;;;;;;;;;;4938961;29;20035;-75
2024/01/30 04:01:08;;;;;;;23.17;15.90;;;;;;;;;;4946399;29;20043;-74
2024/01/30 04:03:34;;;;;;;23.60;15.55;;;;;;;;;;4946025;29;20024;-73
2024/01/30 04:06:00;;;;;;;24.80;16.08;;;;;;;;;;4939076;28;20027;-75
2024/01/30 04:08:26;;;;;;;19.90;14.90;;;;;;;;;;4945187;29;20094;-73
2024/01/30 04:10:52;;;;;;;23.50;15.93;;;;;;;;;;4936942;29;20062;-73
2024/01/30 04:13:18;;;;;;;20.50;14.10;;;;;;;;;;4947403;29;20035;-73
2024/01/30 04:15:44;;;;;;;22.58;15.48;;;;;;;;;;4948123;28;20042;-73
2024/01/30 04:18:10;;;;;;;20.70;15.30;;;;;;;;;;4945397;29;20451;-72
2024/01/30 04:20:36;;;;;;;21.77;15.15;;;;;;;;;;4946824;29;20043;-73
2024/01/30 04:23:02;;;;;;;20.70;15.88;;;;;;;;;;4942051;29;20027;-72
2024/01/30 04:25:28;;;;;;;20.25;14.23;;;;;;;;;;4946757;29;20027;-73
2024/01/30 04:27:54;;;;;;;20.55;14.68;;;;;;;;;;4935023;28;20444;-73
2024/01/30 04:30:20;;;;;;;22.00;14.50;;;;;;;;;;4938467;29;20079;-73
2024/01/30 04:32:46;;;;;;;20.33;14.40;;;;;;;;;;4940517;29;20157;-72
2024/01/30 04:35:13;;;;;;;23.55;14.65;;;;;;;;;;4944715;29;20437;-73
2024/01/30 04:37:39;;;;;;;19.13;12.85;;;;;;;;;;4949599;29;20031;-73
2024/01/30 04:40:05;;;;;;;20.48;14.55;;;;;;;;;;4947106;29;20038;-73
2024/01/30 04:42:31;;;;;;;21.13;13.63;;;;;;;;;;4935186;29;20031;-73
2024/01/30 04:44:57;;;;;;;24.65;14.48;;;;;;;;;;4945369;29;20039;-74
2024/01/30 04:47:23;;;;;;;23.75;13.48;;;;;;;;;;4938400;29;20039;-73
2024/01/30 04:49:50;;;;;;;20.50;15.27;;;;;;;;;;4941207;29;20107;-73
2024/01/30 04:52:16;;;;;;;21.45;13.40;;;;;;;;;;4953349;28;20426;-73
2024/01/30 04:54:43;;;;;;;22.23;14.10;;;;;;;;;;4932931;29;20027;-73
2024/01/30 04:57:09;;;;;;;17.27;13.40;;;;;;;;;;4937545;29;20061;-73
2024/01/30 04:59:36;;;;;;;19.08;13.18;;;;;;;;;;4941039;28;20067;-74
2024/01/30 05:02:02;;;;;;;21.88;12.85;;;;;;;;;;4946673;28;20030;-72
2024/01/30 05:04:28;;;;;;;18.38;13.30;;;;;;;;;;4943606;28;20159;-74
2024/01/30 05:06:54;;;;;;;16.98;11.85;;;;;;;;;;4948979;28;20038;-73
2024/01/30 05:09:21;;;;;;;16.13;12.00;;;;;;;;;;4940853;29;20031;-73
2024/01/30 05:11:47;;;;;;;23.35;12.45;;;;;;;;;;4943083;28;20055;-73
2024/01/30 05:14:14;;;;;;;17.15;12.15;;;;;;;;;;4935614;29;20031;-73
2024/01/30 05:16:41;;;;;;;18.10;12.00;;;;;;;;;;4941610;29;20435;-74
2024/01/30 05:19:07;;;;;;;17.48;12.40;;;;;;;;;;4939536;29;20055;-73
2024/01/30 05:21:34;;;;;;;17.27;12.38;;;;;;;;;;4935994;29;20038;-73
2024/01/30 05:24:00;;;;;;;21.17;12.27;;;;;;;;;;4948073;29;20023;-74
2024/01/30 05:26:26;;;;;;;19.95;13.02;;;;;;;;;;4951539;29;20031;-73
2024/01/30 05:28:52;;;;;;;17.48;12.85;;;;;;;;;;4939952;29;20038;-73
2024/01/30 05:31:19;;;;;;;20.17;11.45;;;;;;;;;;4951905;29;20027;-74
2024/01/30 05:33:45;;;;;;;16.65;11.80;;;;;;;;;;4940732;28;20134;-73
2024/01/30 05:36:14;;;;;;;18.67;12.80;;;;;;;;;;4939067;29;20416;-73
2024/01/30 05:38:40;;;;;;;20.13;12.65;;;;;;;;;;4942823;29;20035;-74
2024/01/30 05:41:06;;;;;;;18.08;12.73;;;;;;;;;;4952869;29;20039;-73
2024/01/30 05:43:32;;;;;;;19.13;12.18;;;;;;;;;;4949995;29;20118;-72
2024/01/30 05:45:58;;;;;;;19.52;12.60;;;;;;;;;;4951887;29;20034;-72
2024/01/30 05:48:24;;;;;;;19.08;13.30;;;;;;;;;;4941221;29;20043;-73
2024/01/30 05:50:50;;;;;;;17.95;12.18;;;;;;;;;;4935355;29;20052;-73
2024/01/30 05:53:16;;;;;;;20.13;12.98;;;;;;;;;;4934729;29;20385;-74
2024/01/30 05:55:42;;;;;;;17.80;12.38;;;;;;;;;;4948280;29;20464;-75
2024/01/30 05:58:08;;;;;;;18.20;11.73;;;;;;;;;;4944761;29;20427;-74
2024/01/30 06:00:34;;;;;;;24.52;13.93;;;;;;;;;;4945476;28;20393;-73
2024/01/30 06:03:00;;;;;;;22.20;15.63;;;;;;;;;;4950341;29;20461;-74
2024/01/30 06:05:26;;;;;;;18.90;12.27;;;;;;;;;;4947433;28;20031;-73
2024/01/30 06:07:52;;;;;;;26.38;17.58;;;;;;;;;;4943803;29;20655;-74
2024/01/30 06:10:18;;;;;;;21.52;13.57;;;;;;;;;;4944733;29;20039;-74
2024/01/30 06:12:44;;;;;;;23.52;16.63;;;;;;;;;;4937953;29;20365;-74
2024/01/30 06:15:12;;;;;;;19.17;13.13;;;;;;;;;;4939329;29;20512;-74
2024/01/30 06:17:38;;;;;;;23.40;14.65;;;;;;;;;;4944750;29;20019;-75
2024/01/30 06:20:05;;;;;;;17.65;13.20;;;;;;;;;;4944326;29;20042;-73
2024/01/30 06:22:31;;;;;;;18.58;13.38;;;;;;;;;;4952085;29;20147;-74
2024/01/30 06:24:57;;;;;;;15.43;12.10;;;;;;;;;;4947285;29;20497;-75
2024/01/30 06:27:23;;;;;;;21.60;12.77;;;;;;;;;;4933453;28;20493;-73
2024/01/30 06:29:49;;;;;;;20.52;13.43;;;;;;;;;;4938532;29;20032;-73
2024/01/30 06:32:15;;;;;;;20.85;12.70;;;;;;;;;;4950251;29;20035;-73
2024/01/30 06:34:44;;;;;;;21.13;11.93;;;;;;;;;;4950554;29;20032;-74
2024/01/30 06:37:10;;;;;;;19.15;12.10;;;;;;;;;;4958325;28;20035;-74
2024/01/30 06:39:36;;;;;;;17.75;12.30;;;;;;;;;;4947576;28;20031;-74
2024/01/30 06:42:02;;;;;;;16.60;12.52;;;;;;;;;;4937505;29;20123;-75
2024/01/30 06:44:28;;;;;;;17.83;11.07;;;;;;;;;;4946586;29;20401;-74
2024/01/30 06:46:54;;;;;;;20.73;12.18;;;;;;;;;;4936360;29;20449;-74
2024/01/30 06:49:21;;;;;;;15.55;11.48;;;;;;;;;;4945531;29;20122;-73
2024/01/30 06:51:48;;;;;;;17.75;11.70;;;;;;;;;;4931330;29;20408;-75
2024/01/30 06:54:14;;;;;;;15.77;11.20;;;;;;;;;;4946526;29;20031;-74
2024/01/30 06:56:40;;;;;;;18.50;12.07;;;;;;;;;;4937854;29;20051;-74
2024/01/30 06:59:06;;;;;;;18.20;11.20;;;;;;;;;;4933019;29;20032;-73
2024/01/30 07:01:32;;;;;;;17.13;11.45;;;;;;;;;;4938677;28;20028;-73
2024/01/30 07:03:58;;;;;;;17.52;11.63;;;;;;;;;;4940530;29;20042;-75
2024/01/30 07:06:24;;;;;;;18.10;11.60;;;;;;;;;;4946099;29;20499;-73
2024/01/30 07:08:51;;;;;;;16.35;11.38;;;;;;;;;;4940742;29;20027;-73
2024/01/30 07:11:23;;;;;;;14.45;11.60;;;;;;;;;;4936504;29;20059;-73
2024/01/30 07:13:49;;;;;;;;;;;;;;;;;;4948454;29;20023;-73
2024/01/30 07:16:15;;;;;;;16.92;11.27;;;;;;;;;;4947053;29;20320;-73
2024/01/30 07:18:41;;;;;;;16.05;10.40;;;;;;;;;;4934644;29;20115;-74
2024/01/30 07:21:08;;;;;;;16.95;11.35;;;;;;;;;;4938903;29;20035;-74
2024/01/30 07:23:34;;;;;;;14.15;10.98;;;;;;;;;;4940964;28;20026;-73
2024/01/30 07:26:00;;;;;;;21.73;11.25;;;;;;;;;;4939778;29;20168;-73
2024/01/30 07:28:27;;;;;;;17.00;9.98;;;;;;;;;;4949001;29;20572;-73
2024/01/30 07:30:53;;;;;;;23.92;11.07;;;;;;;;;;4945476;28;20790;-74
2024/01/30 07:33:19;;;;;;;13.35;10.45;;;;;;;;;;4945646;29;20424;-73
2024/01/30 07:35:46;;;;;;;16.83;11.35;;;;;;;;;;4937647;29;20508;-74
2024/01/30 07:38:12;;;;;;;18.25;10.27;;;;;;;;;;4934502;29;20039;-73
2024/01/30 07:40:38;;;;;;;16.02;9.55;;;;;;;;;;4937230;29;20062;-73
2024/01/30 07:43:04;;;;;;;15.13;10.30;;;;;;;;;;4936806;29;20457;-75
2024/01/30 07:45:33;;;;;;;20.20;10.75;;;;;;;;;;4937387;29;20431;-74
2024/01/30 07:48:02;;;;;;;21.48;11.20;;;;;;;;;;4940146;29;20698;-74
2024/01/30 07:50:28;;;;;;;16.70;11.38;;;;;;;;;;4931557;28;20085;-72
2024/01/30 07:52:54;;;;;;;20.88;11.93;;;;;;;;;;4950424;29;20031;-75
2024/01/30 07:55:24;;;;;;;19.42;12.10;;;;;;;;;;4940776;28;20039;-76
2024/01/30 07:57:50;;;;;;;17.17;9.65;;;;;;;;;;4925309;29;20762;-74
2024/01/30 08:00:17;;;;;;;25.27;11.85;;;;;;;;;;4946740;29;20042;-73
2024/01/30 08:02:43;;;;;;;20.60;11.63;;;;;;;;;;4948638;29;20027;-74
2024/01/30 08:05:11;;;;;;;12.93;10.00;;;;;;;;;;4938387;29;20697;-76
2024/01/30 08:07:37;;;;;;;16.23;10.65;;;;;;;;;;4946759;28;20139;-74
2024/01/30 08:10:03;;;;;;;18.17;11.10;;;;;;;;;;4939556;29;20106;-75
2024/01/30 08:12:29;;;;;;;16.63;10.65;;;;;;;;;;4941430;29;20136;-73
2024/01/30 08:14:55;;;;;;;15.73;11.63;;;;;;;;;;4948752;29;20035;-73
2024/01/30 08:17:21;;;;;;;36.60;21.17;;;;;;;;;;4941022;28;20050;-74
2024/01/30 08:19:47;;;;;;;17.42;11.25;;;;;;;;;;4932580;29;20043;-74
2024/01/30 08:22:13;;;;;;;14.88;11.27;;;;;;;;;;4937172;29;20031;-74
2024/01/30 08:24:41;;;;;;;19.88;11.23;;;;;;;;;;4946898;29;20042;-74
2024/01/30 08:27:09;;;;;;;16.17;9.88;;;;;;;;;;4945123;29;20039;-74
2024/01/30 08:29:35;;;;;;;19.33;10.90;;;;;;;;;;4931912;29;20043;-75
2024/01/30 08:32:02;;;;;;;13.20;10.07;;;;;;;;;;4935953;29;20039;-74
2024/01/30 08:34:28;;;;;;;25.48;11.43;;;;;;;;;;4938230;29;20031;-74
2024/01/30 08:36:54;;;;;;;14.07;10.18;;;;;;;;;;4945495;29;20027;-74
2024/01/30 08:39:20;;;;;;;19.17;10.52;;;;;;;;;;4936112;29;20051;-73
2024/01/30 08:41:46;;;;;;;17.17;9.65;;;;;;;;;;4940024;28;20143;-75
2024/01/30 08:44:12;;;;;;;18.48;10.82;;;;;;;;;;4946126;29;20053;-73
2024/01/30 08:46:38;;;;;;;13.88;10.38;;;;;;;;;;4948491;29;20042;-74
2024/01/30 08:49:04;;;;;;;15.35;10.70;;;;;;;;;;4939526;29;20027;-73
2024/01/30 08:51:30;;;;;;;17.52;10.77;;;;;;;;;;4948132;29;20066;-74
2024/01/30 08:53:57;;;;;;;18.58;11.15;;;;;;;;;;4947728;29;20031;-73
2024/01/30 08:56:23;;;;;;;15.07;10.82;;;;;;;;;;4946326;29;20031;-75
2024/01/30 08:58:49;;;;;;;16.20;10.50;;;;;;;;;;4943357;29;20035;-74
2024/01/30 09:01:15;;;;;;;55.42;35.53;;;;;;;;;;4945270;28;20038;-74
2024/01/30 09:03:43;;;;;;;25.95;14.43;;;;;;;;;;4938816;29;20058;-75
2024/01/30 09:06:10;;;;;;;19.00;10.90;;;;;;;;;;4949143;29;20034;-74
2024/01/30 09:08:36;;;;;;;15.05;11.15;;;;;;;;;;4949585;29;20047;-72
2024/01/30 09:11:05;;;;;;;18.13;10.35;;;;;;;;;;4953039;29;20047;-73
2024/01/30 09:13:31;;;;;;;15.65;10.55;;;;;;;;;;4944197;28;20027;-75
2024/01/30 09:15:57;;;;;;;18.25;11.70;;;;;;;;;;4948122;29;20812;-74
2024/01/30 09:18:23;;;;;;;20.73;12.52;;;;;;;;;;4942186;29;20505;-75
2024/01/30 09:20:49;;;;;;;16.95;10.73;;;;;;;;;;4951385;29;20046;-75
2024/01/30 09:23:15;;;;;;;21.55;11.77;;;;;;;;;;4941357;29;20040;-74
2024/01/30 09:25:41;;;;;;;20.48;12.93;;;;;;;;;;4952104;29;20027;-74
2024/01/30 09:28:07;;;;;;;28.17;14.18;;;;;;;;;;4941497;29;20035;-74
2024/01/30 09:30:33;;;;;;;21.73;11.32;;;;;;;;;;4944766;29;20508;-74
2024/01/30 09:32:59;;;;;;;24.13;12.07;;;;;;;;;;4940539;29;20508;-74
2024/01/30 09:35:25;;;;;;;19.88;11.73;;;;;;;;;;4946803;28;20031;-74
2024/01/30 09:37:52;;;;;;;18.65;10.73;;;;;;;;;;4944600;29;20127;-74
2024/01/30 09:40:19;;;;;;;22.45;11.27;;;;;;;;;;4946457;29;20031;-73
2024/01/30 09:42:50;;;;;;;24.15;10.60;;;;;;;;;;4951626;29;20031;-73
2024/01/30 09:45:18;;;;;;;20.45;11.23;;;;;;;;;;4946556;29;20502;-74
2024/01/30 09:47:44;;;;;;;19.77;11.45;;;;;;;;;;4947939;29;20063;-75
2024/01/30 09:50:11;;;;;;;20.92;10.93;;;;;;;;;;4941940;29;20139;-74
2024/01/30 09:52:37;;;;;;;33.47;19.00;;;;;;;;;;4926389;29;20410;-74
2024/01/30 09:55:03;;;;;;;16.27;10.75;;;;;;;;;;4939946;29;20098;-74
2024/01/30 09:57:29;;;;;;;17.17;10.88;;;;;;;;;;4950745;29;20142;-78
2024/01/30 09:59:56;;;;;;;23.70;12.75;;;;;;;;;;4943308;29;20027;-74
2024/01/30 10:02:22;;;;;;;15.65;10.77;;;;;;;;;;4950860;29;20031;-73
2024/01/30 10:04:51;;;;;;;22.13;11.25;;;;;;;;;;4946952;29;20027;-73
2024/01/30 10:07:18;;;;;;;24.55;11.25;;;;;;;;;;4944039;28;20089;-73
2024/01/30 10:09:44;;;;;;;22.17;12.23;;;;;;;;;;4944897;29;20039;-73
2024/01/30 10:12:10;;;;;;;25.23;11.77;;;;;;;;;;4938009;29;20129;-73
2024/01/30 10:14:40;;;;;;;20.25;11.95;;;;;;;;;;4947614;29;20380;-74
2024/01/30 10:17:08;;;;;;;25.83;11.02;;;;;;;;;;4949644;29;20027;-73
2024/01/30 10:19:34;;;;;;;21.40;11.18;;;;;;;;;;4950331;28;20035;-73
2024/01/30 10:22:03;;;;;;;22.85;11.05;;;;;;;;;;4951349;29;20043;-73
2024/01/30 10:24:29;;;;;;;16.13;11.07;;;;;;;;;;4952703;29;20027;-74
2024/01/30 10:26:56;;;;;;;18.88;11.07;;;;;;;;;;4938548;28;20036;-75
2024/01/30 10:29:22;;;;;;;18.92;10.02;;;;;;;;;;4938012;28;20044;-73
2024/01/30 10:32:01;;;;;;;20.58;9.90;;;;;;;;;;4937576;29;20064;-73
2024/01/30 10:34:27;;;;;;;15.98;9.57;;;;;;;;;;4936880;29;20031;-74
2024/01/30 10:37:06;;;;;;;18.55;9.45;;;;;;;;;;4940787;29;20030;-73
2024/01/30 10:39:32;;;;;;;18.23;8.50;;;;;;;;;;4937184;29;20054;-74
2024/01/30 10:42:03;;;;;;;16.42;8.35;;;;;;;;;;4937433;29;20039;-72
2024/01/30 10:44:30;;;;;;;26.13;14.48;;;;;;;;;;4939500;29;20058;-72
2024/01/30 10:47:01;;;;;;;19.10;8.40;;;;;;;;;;4936340;29;20039;-72
2024/01/30 10:49:27;;;;;;;16.35;7.45;;;;;;;;;;4939295;29;20089;-74
2024/01/30 10:51:54;;;;;;;17.27;7.45;;;;;;;;;;4947820;28;20055;-74
2024/01/30 10:54:20;;;;;;;14.88;6.88;;;;;;;;;;4942838;28;20035;-73
2024/01/30 10:56:47;;;;;;;18.35;7.78;;;;;;;;;;4940617;29;20512;-74
2024/01/30 10:59:13;;;;;;;20.60;7.80;;;;;;;;;;4934554;29;20042;-73
2024/01/30 11:01:39;;;;;;;19.70;7.72;;;;;;;;;;4940631;29;20035;-74
2024/01/30 11:04:07;;;;;;;14.32;7.55;;;;;;;;;;4939942;28;20074;-74
2024/01/30 11:06:41;;;;;;;13.82;6.30;;;;;;;;;;4936954;29;20044;-73
2024/01/30 11:09:12;;;;;;;16.67;6.30;;;;;;;;;;4937934;29;20032;-73
2024/01/30 11:11:50;;;;;;;19.65;5.13;;;;;;;;;;4937206;29;20845;-73
2024/01/30 11:14:16;;;;;;;23.35;5.63;;;;;;;;;;4935752;29;20058;-74
2024/01/30 11:16:42;;;;;;;8.57;4.00;;;;;;;;;;4941571;29;20031;-73
2024/01/30 11:19:12;;;;;;;11.68;3.55;;;;;;;;;;4945184;29;20027;-74
2024/01/30 11:21:42;;;;;;;11.68;4.88;;;;;;;;;;4937367;29;20031;-74
2024/01/30 11:24:08;;;;;;;12.00;3.35;;;;;;;;;;4929360;28;20182;-73
2024/01/30 11:26:38;;;;;;;9.82;2.97;;;;;;;;;;4937642;28;20031;-74
2024/01/30 11:29:08;;;;;;;6.40;1.92;;;;;;;;;;4935864;29;20035;-73
2024/01/30 11:31:34;;;;;;;4.88;1.58;;;;;;;;;;4935922;29;20044;-74
2024/01/30 11:34:01;;;;;;;8.25;0.95;;;;;;;;;;4942591;29;20043;-73
2024/01/30 11:36:27;;;;;;;4.68;0.63;;;;;;;;;;4935330;29;20036;-73
2024/01/30 11:38:54;;;;;;;4.85;1.00;;;;;;;;;;4939057;29;20036;-74
2024/01/30 11:41:20;;;;;;;5.45;0.90;;;;;;;;;;4934722;29;20095;-73
2024/01/30 11:43:56;;;;;;;5.95;0.95;;;;;;;;;;4920879;29;20110;-73
2024/01/30 11:46:22;;;;;;;9.68;1.42;;;;;;;;;;4936075;29;20044;-74
2024/01/30 11:48:48;;;;;;;3.63;1.58;;;;;;;;;;4937836;29;20046;-76
2024/01/30 11:51:14;;;;;;;7.38;1.23;;;;;;;;;;4940693;29;20066;-72
2024/01/30 11:53:40;;;;;;;6.43;1.50;;;;;;;;;;4936790;29;20074;-78
2024/01/30 11:56:08;;;;;;;4.43;1.17;;;;;;;;;;4935327;29;20065;-73
2024/01/30 11:58:34;;;;;;;5.63;1.38;;;;;;;;;;4939577;28;20042;-73
2024/01/30 12:01:00;;;;;;;9.63;1.52;;;;;;;;;;4936132;28;20035;-75
2024/01/30 12:03:26;;;;;;;6.18;1.30;;;;;;;;;;4936219;29;20032;-78
2024/01/30 12:05:57;;;;;;;4.95;1.60;;;;;;;;;;4939433;29;20027;-75
2024/01/30 12:08:23;;;;;;;7.32;1.90;;;;;;;;;;4944863;29;20031;-74
2024/01/30 12:10:57;;;;;;;12.35;3.10;;;;;;;;;;4940620;28;20159;-72
2024/01/30 12:13:23;;;;;;;7.20;1.67;;;;;;;;;;4952697;28;20030;-74
2024/01/30 12:15:49;;;;;;;14.55;2.20;;;;;;;;;;4944289;28;20098;-73
2024/01/30 12:18:19;;;;;;;7.20;1.60;;;;;;;;;;4950176;29;20054;-73
2024/01/30 12:20:45;;;;;;;11.73;3.00;;;;;;;;;;4943631;29;20078;-73
2024/01/30 12:23:14;;;;;;;8.57;2.75;;;;;;;;;;4950470;29;20090;-73
2024/01/30 12:25:40;;;;;;;3.30;1.45;;;;;;;;;;4946519;29;20576;-73
2024/01/30 12:28:07;;;;;;;7.93;2.15;;;;;;;;;;4950711;29;20028;-73
2024/01/30 12:30:35;;;;;;;6.20;1.27;;;;;;;;;;4946812;29;20043;-74
2024/01/30 12:33:04;;;;;;;7.80;2.13;;;;;;;;;;4947719;29;20035;-74
2024/01/30 12:35:30;;;;;;;5.47;1.02;;;;;;;;;;4944561;29;20028;-73
2024/01/30 12:37:56;;;;;;;6.75;1.85;;;;;;;;;;4943905;29;20069;-73
2024/01/30 12:40:24;;;;;;;4.20;1.00;;;;;;;;;;4945815;29;20773;-72
2024/01/30 12:42:50;;;;;;;5.03;1.60;;;;;;;;;;4942344;28;20023;-73
2024/01/30 12:45:20;;;;;;;8.70;1.67;;;;;;;;;;4949231;29;20027;-73
2024/01/30 12:47:46;;;;;;;8.90;1.30;;;;;;;;;;4931490;29;20024;-73
2024/01/30 12:50:12;;;;;;;4.90;0.95;;;;;;;;;;4942694;29;20036;-73
2024/01/30 12:52:38;;;;;;;3.38;1.30;;;;;;;;;;4949044;28;20050;-73
2024/01/30 12:55:04;;;;;;;3.70;1.02;;;;;;;;;;4945285;29;20034;-73
2024/01/30 12:57:30;;;;;;;3.25;0.95;;;;;;;;;;4941990;29;20036;-73
2024/01/30 12:59:56;;;;;;;3.50;0.73;;;;;;;;;;4937726;29;20039;-74
2024/01/30 13:02:23;;;;;;;7.85;2.08;;;;;;;;;;4915196;29;20075;-75
2024/01/30 13:04:49;;;;;;;7.55;1.20;;;;;;;;;;4934199;28;20031;-74
2024/01/30 13:07:15;;;;;;;4.88;0.98;;;;;;;;;;4941772;29;20027;-73
2024/01/30 13:09:41;;;;;;;3.58;1.35;;;;;;;;;;4933881;29;20035;-73
2024/01/30 13:12:07;;;;;;;6.78;1.20;;;;;;;;;;4940143;29;20058;-73
2024/01/30 13:14:33;;;;;;;7.28;0.80;;;;;;;;;;4940639;29;20032;-73
2024/01/30 13:17:00;;;;;;;3.03;0.88;;;;;;;;;;4943306;29;20031;-73
2024/01/30 13:19:26;;;;;;;2.78;0.80;;;;;;;;;;4941380;29;20016;-73
2024/01/30 13:21:52;;;;;;;4.18;0.80;;;;;;;;;;4938670;29;20027;-73
2024/01/30 13:24:21;;;;;;;4.57;1.00;;;;;;;;;;4949552;29;20031;-74
2024/01/30 13:26:48;;;;;;;3.40;0.80;;;;;;;;;;4945997;29;20090;-72
2024/01/30 13:29:14;;;;;;;10.85;2.20;;;;;;;;;;4946369;28;20039;-73
2024/01/30 13:31:40;;;;;;;6.72;1.67;;;;;;;;;;4949713;29;20038;-73
2024/01/30 13:34:06;;;;;;;3.53;1.00;;;;;;;;;;4944574;29;20035;-72
2024/01/30 13:36:32;;;;;;;5.85;0.90;;;;;;;;;;4952472;28;20031;-73
2024/01/30 13:38:59;;;;;;;3.13;0.90;;;;;;;;;;4952398;29;20032;-74
2024/01/30 13:41:25;;;;;;;3.47;0.95;;;;;;;;;;4943265;29;20035;-73
2024/01/30 13:43:51;;;;;;;5.50;1.10;;;;;;;;;;4934023;29;20028;-73
2024/01/30 13:46:17;;;;;;;5.20;1.30;;;;;;;;;;4943652;29;20011;-73
2024/01/30 13:48:43;;;;;;;5.95;1.42;;;;;;;;;;4952461;29;20477;-73
2024/01/30 13:51:10;;;;;;;5.38;1.23;;;;;;;;;;4949881;29;20035;-75
2024/01/30 13:53:36;;;;;;;6.82;0.90;;;;;;;;;;4948144;29;20026;-73
2024/01/30 13:56:02;;;;;;;5.57;1.30;;;;;;;;;;4947062;29;20411;-73
2024/01/30 13:58:29;;;;;;;3.58;1.10;;;;;;;;;;4947197;29;20062;-74
2024/01/30 14:00:55;;;;;;;7.18;1.98;;;;;;;;;;4952948;29;20031;-74
2024/01/30 14:03:21;;;;;;;7.05;1.80;;;;;;;;;;4932257;29;20039;-73
2024/01/30 14:05:47;;;;;;;6.32;1.85;;;;;;;;;;4950089;29;20111;-73
2024/01/30 14:08:13;;;;;;;9.65;2.80;;;;;;;;;;4942994;29;20035;-73
2024/01/30 14:10:39;;;;;;;7.68;1.63;;;;;;;;;;4947130;28;20051;-75
2024/01/30 14:13:05;;;;;;;11.10;3.35;;;;;;;;;;4939283;29;20040;-74
2024/01/30 14:15:31;;;;;;;7.35;2.00;;;;;;;;;;4946577;29;20039;-74
2024/01/30 14:17:57;;;;;;;9.07;2.30;;;;;;;;;;4938838;29;20047;-73
2024/01/30 14:20:23;;;;;;;6.53;2.50;;;;;;;;;;4932772;29;20062;-74